Tiempo atmosférico en la estación meteorológica de Carrión De Los Condes, Palencia (830 m.)



Fecha
DESCASC
Temp. máxima en grados centígrados (hora)
DESCASC
Temp. mínima en grados centígrados (hora)
DESCASC
Temp. media en grados centígrados
DESCASC
Racha de viento máxima en m/sg (hora)
DESCASC
Velocidad máxima media en intervalos de 10 minutos(hora)
DESCASC
Precipitaciones diarias en mm
DESCASC
Precipitaciones de 00:00 a 06:00 en mm
DESCASC
Precipitaciones de 06:00 a 12:00 en mm
DESCASC
Precipitaciones de 12:00 a 18:00 en mm
DESCASC
Precipitaciones de 18:00 a 24:00 en mm
DESCASC
18-01-2018 11.6 (16:00) -3.3 (07:20) 4.2 6.11 (15:30) 2.5 (14:40) 0 0 0 0 0
17-01-2018 10.1 (16:10) -1 (07:50) 4.6 4.44 (13:20) 2.5 (12:50) 0 0 0 0 0
16-01-2018 12.9 (16:10) 2.1 (00:40) 7.5 10.56 (18:00) 5.28 (18:10) 0 0 0 0 0
15-01-2018 2.9 (17:20) -3 (09:20) 0 6.39 (13:50) 2.78 (14:50) 0 0 0 0 0
14-01-2018 0.2 (01:00) -1.7 (-00:0) -0.8 5 (13:00) 1.94 (15:00) 0 0 0 0 0
13-01-2018 1.2 (17:00) -0.8 (-00:0) 0.2 4.17 (14:10) 1.67 (13:20) 5.4 0 0.6 4.2 0.6
12-01-2018 1.3 (16:50) -3.1 (-00:0) -0.9 3.89 (17:10) 2.22 (16:50) 0 0 0 0 0
11-01-2018 8.9 (16:00) -1.5 (-00:0) 3.7 9.17 (02:40) 2.78 (01:00) 0 0 0 0 0
10-01-2018 7 (16:50) -0.3 (00:00) 3.3 14.17 (15:00) 6.11 (15:00) 3.6 0.2 0.2 3.2 0
09-01-2018 2.3 (23:20) -4.2 (-00:0) -0.9 7.22 (16:30) 3.89 (16:30) 2.6 0 0 2.4 0.2
08-01-2018 7.7 (15:10) -3 (-00:0) 2.3 5.28 (14:30) 3.06 (16:00) 0 0 0 0 0
07-01-2018 6 (15:00) 0.4 (00:00) 3.2 10.83 (16:00) 4.72 (17:10) 0 0 0 0 0
06-01-2018 4 (00:00) 1.4 (00:00) 2.7 8.33 (22:00) 4.17 (21:40) 0 0 0 0 0
05-01-2018 8.4 (15:00) 4 (00:00) 6.2 13.89 (06:00) 6.67 (07:10) 2.2 0 1.6 0.6 0
04-01-2018 13.2 (15:50) 7.8 (23:30) 10.5 11.11 (05:20) 5.28 (16:40) 0 0 0 0 0
03-01-2018 16.9 (14:50) 9.5 (00:00) 13.2 12.78 (04:50) 5 (05:40) 0 0 0 0 0
02-01-2018 13.7 (15:20) 4.4 (00:00) 9 9.17 (00:40) 3.89 (03:40) 0 0 0 0 0
01-01-2018 10.2 (16:10) -0.2 (00:00) 5 15 (11:20) 6.39 (11:20) 0 0 0 0 0
31-12-2017 10.4 (12:50) 0.5 (00:00) 5.4 17.22 (13:00) 8.61 (13:00) 0.4 0 0 0.4 0
30-12-2017 12.3 (12:30) 5.7 (00:00) 9 10.28 (01:10) 5 (01:10) 0 0 0 0 0
29-12-2017 15.1 (15:50) 1.2 (00:00) 8.2 7.22 (14:20) 3.33 (22:00) 0 0 0 0 0
28-12-2017 13.4 (14:50) 1.2 (00:00) 7.3 10.56 (15:00) 3.33 (15:50) 0 0 0 0 0
27-12-2017 8 (14:00) 0.7 (00:00) 4.3 13.06 (00:20) 3.89 (00:10) 0.4 0.4 0 0 0
26-12-2017 5.9 (22:50) -1.8 (-00:0) 2.1 20.56 (21:30) 10.28 (21:30) 2.2 0 0 0.2 2
25-12-2017 7.1 (17:00) -3.9 (-00:0) 1.6 11.94 (22:00) 6.11 (22:40) 0 0 0 0 0
24-12-2017 11.2 (15:50) -4.8 (-00:0) 3.2 5 (17:20) 1.94 (15:40) 0 0 0 0 0

Gráficas

Temp. máximas Temp. mínimas Temp. medias Precipitaciones Rachas de viento máximas Velocidades máximas media en intervalos de 10 minutos

Datos horarios

Fecha y hora oficial Temperatura (ºC) Velocidad del viento (km/h) Dirección del viento Racha (km/h) Dirección de racha Precipitación (mm) Presión (hPa) Tendencia (hPa) Humedad (%)
2018-01-22 23:00:00 5.9 4 Sudoeste 8 Sudoeste 0 934.9 0.4 90
2018-01-22 22:00:00 6.1 2 Sur 8 Sur 0 934.7 0.5 89
2018-01-22 21:00:00 6.3 2 Este 6 Norte 0 934.8 1 89
2018-01-22 20:00:00 6.5 2 Sudeste 13 Sudoeste 0 934.5 0.9 88
2018-01-22 19:00:00 6.7 0 Calma 5 Sudeste 0 934.2 0.7 85
2018-01-22 18:00:00 7.1 0 Calma 7 Noroeste 0 933.8 0.5 84
2018-01-22 17:00:00 7.3 3 Sudoeste 8 Sur 0 933.6 -0.2 83
2018-01-22 16:00:00 7.4 3 Noroeste 8 Noroeste 0 933.5 -0.9 83
2018-01-22 15:00:00 7.2 4 Sudoeste 12 Sudoeste 0 933.3 -1.8 92
2018-01-22 14:00:00 6.5 6 Sudoeste 14 Sur 0 933.8 -1.1 97
2018-01-22 13:00:00 6.2 6 Sudoeste 18 Sudoeste 0 934.4 0.2 98
2018-01-22 12:00:00 5.5 3 Oeste 15 Sudoeste 0 935.1 1.2 98
2018-01-22 11:00:00 4.2 2 Oeste 7 Noroeste 0 934.9 1 98
2018-01-22 10:00:00 2.6 2 Noroeste 17 Sudoeste 0 934.2 0.8 98
2018-01-22 09:00:00 1.8 7 Sudoeste 13 Sudoeste 0 933.9 0.5 98
2018-01-22 08:00:00 1.9 3 Oeste 14 Sudoeste 0 933.9 0.6 98
2018-01-22 07:00:00 2.1 6 Sudoeste 12 Sudoeste 0 933.4 -0.1 98
2018-01-22 06:00:00 2.3 4 Sudoeste 11 Oeste 0 933.4 -0.2 98
2018-01-22 05:00:00 2.8 5 Sudoeste 11 Sudoeste 0 933.3 -0.6 98
2018-01-22 04:00:00 3.1 3 Sudoeste 11 Sudoeste 0 933.5 -0.8 98
2018-01-22 03:00:00 3.8 4 Sudoeste 10 Sudoeste 0 933.6 -0.6 97
2018-01-22 02:00:00 4.2 0 Calma 7 Sudoeste 0 933.9 -0.4 97
2018-01-22 01:00:00 3.8 0 Calma 8 Sudoeste 0 934.3 0 97
2018-01-22 00:00:00 1.9 0 Calma 7 Sur 0 934.2 0 96
2018-01-21 23:00:00 1.6 0 Calma 4 Sudeste 0 934.3 -0.1 94
2018-01-21 22:00:00 3 0 Calma 5 Sur 0 934.3 0.5 94
2018-01-21 21:00:00 4.9 3 Sur 11 Sudoeste 0 934.2 0.6 94
2018-01-21 20:00:00 5.9 4 Sudoeste 11 Sur 0 934.4 0.9 92
2018-01-21 19:00:00 7.3 5 Sudoeste 15 Sudoeste 0 933.8 0.4 85
2018-01-21 18:00:00 9.6 8 Sudoeste 22 Sudoeste 0 933.6 0 81
2018-01-21 17:00:00 11.2 13 Sudoeste 25 Sudoeste 0 933.5 -0.3 76
2018-01-21 16:00:00 12.4 11 Sudoeste 26 Sur 0 933.4 -0.9 72
2018-01-21 15:00:00 11.8 15 Sudoeste 30 Sudoeste 0 933.6 -1 73
2018-01-21 14:00:00 12.4 14 Sudoeste 26 Sudoeste 0 933.8 -0.5 74
2018-01-21 13:00:00 11.7 12 Sudoeste 30 Sudoeste 0 934.3 0.4 73
2018-01-21 12:00:00 11.4 5 Sudoeste 15 Oeste 0 934.6 1.2 75
2018-01-21 11:00:00 8.9 3 Oeste 14 Oeste 0 934.3 1.6 89
2018-01-21 10:00:00 5.3 6 Sudoeste 9 Sur 0 933.9 1.3 97
2018-01-21 09:00:00 2.5 0 Calma 15 Sudeste 0 933.4 1.2 97
2018-01-21 08:00:00 1.8 3 Oeste 6 Oeste 0 932.7 0 97
2018-01-21 07:00:00 2.2 0 Calma 8 Sudoeste 0 932.6 0 97
2018-01-21 06:00:00 2.9 0 Calma 6 Norte 0 932.2 -0.3 96
2018-01-21 05:00:00 4.1 3 Oeste 15 Oeste 0 932.7 0.5 97
2018-01-21 04:00:00 4.2 0 Calma 9 Sur 0 932.6 0.4 97
2018-01-21 03:00:00 4 0 Calma 7 Oeste 0 932.5 0.7 96
2018-01-21 02:00:00 4 0 Calma 7 Sudoeste 0 932.2 0.5 96
2018-01-21 01:00:00 4 0 Calma 10 Norte 0 932.2 0.7 95
2018-01-21 00:00:00 4.4 0 Calma 6 Oeste 0 931.8 0.4 94
2018-01-20 23:00:00 5.2 0 Calma 9 Nordeste 0 931.7 0.5 93
2018-01-20 22:00:00 5.8 3 Este 13 Oeste 0 931.5 0.8 93
2018-01-20 21:00:00 5.6 0 Calma 10 Sudoeste 0 931.4 1.5 91
2018-01-20 20:00:00 6.6 2 Noroeste 14 Oeste 0 931.2 1.8 87
2018-01-20 19:00:00 7.5 3 Noroeste 21 Oeste 0 930.7 1.5 82
2018-01-20 18:00:00 9.1 3 Noroeste 17 Oeste 0 929.9 0.9 76
2018-01-20 17:00:00 11.6 4 Oeste 17 Sudoeste 0 929.4 0 68
2018-01-20 16:00:00 12.2 4 Oeste 16 Sudoeste 0 929.2 -0.9 69
2018-01-20 15:00:00 11.1 4 Oeste 26 Oeste 0 929 -1.6 70
2018-01-20 14:00:00 9.7 4 Oeste 18 Sudoeste 0 929.4 -1.2 79
2018-01-20 13:00:00 6 4 Oeste 19 Sudoeste 0 930.1 -0.2 95
2018-01-20 12:00:00 1.7 7 Sur 15 Sudoeste 0 930.6 0.5 98
2018-01-20 11:00:00 0.3 4 Sudoeste 12 Sudeste 0 930.6 0.8 98
2018-01-20 10:00:00 -0.6 2 Oeste 6 Oeste 0 930.3 0.5 99
2018-01-20 09:00:00 -1.6 0 Calma 6 Oeste 0 930.1 0.5 99
2018-01-20 08:00:00 -1.4 5 Sudoeste 10 Sudoeste 0 929.8 0.3 99
2018-01-20 07:00:00 -2.2 4 Sudoeste 8 Sudoeste 0 929.8 -0.4 99
2018-01-20 06:00:00 -1.6 4 Oeste 9 Sudoeste 0 929.6 -0.8 99
2018-01-20 05:00:00 -0.9 5 Sudoeste 9 Sudoeste 0 929.5 -1 98
2018-01-20 04:00:00 -1.3 0 Calma 5 Noroeste 0 930.2 -0.6 98
2018-01-20 03:00:00 -2.6 0 Calma 14 Noroeste 0 930.4 -0.6 98
2018-01-20 02:00:00 -2.2 3 Noroeste 4 Noroeste 0 930.5 -0.3 98
2018-01-20 01:00:00 -1.7 2 Oeste 4 Sudoeste 0 930.8 0.3 98
2018-01-20 00:00:00 -1.6 0 Calma 6 Norte 0 931 1.1 98
2018-01-19 23:00:00 -0.7 0 Calma 6 Noroeste 0 930.8 1.1 98
2018-01-19 22:00:00 0 2 Nordeste 8 Noroeste 0 930.5 1.5 98
2018-01-19 21:00:00 1.6 3 Noroeste 10 Nordeste 0 929.9 1.3 97
2018-01-19 20:00:00 2.6 5 Nordeste 18 Este 0 929.7 1.8 97
2018-01-19 19:00:00 2.9 5 Nordeste 10 Nordeste 0 929 1.7 94
2018-01-19 18:00:00 5 3 Nordeste 15 Nordeste 0 928.6 1.2 92
2018-01-19 17:00:00 6.1 6 Este 17 Sudeste 0 927.9 0.5 91
2018-01-19 16:00:00 6.7 6 Este 18 Sudeste 0 927.3 -0.5 89
2018-01-19 15:00:00 7.8 6 Este 17 Este 0 927.4 -1.2 86
2018-01-19 14:00:00 6.2 4 Sur 10 Sudoeste 0 927.4 -0.8 97
2018-01-19 13:00:00 3.4 3 Sudoeste 11 Este 0 927.8 -0.1 98
2018-01-19 12:00:00 2.4 5 Sur 11 Sudeste 0 928.6 1.2 98
2018-01-19 11:00:00 1.7 3 Sur 6 Sur 0 928.2 1.1 98
2018-01-19 10:00:00 0.6 0 Calma 5 Oeste 0 927.9 1.1 98
2018-01-19 09:00:00 0.1 2 Sudoeste 7 Noroeste 0 927.4 0.2 98
2018-01-19 08:00:00 -0.2 3 Oeste 11 Noroeste 0 927.1 0.2 98
2018-01-19 07:00:00 -0.2 6 Nordeste 17 Norte 0 926.8 0.1 98
2018-01-19 06:00:00 -2.5 2 Este 6 Norte 0 927.2 0.2 98
2018-01-19 05:00:00 -2.1 2 Norte 5 Norte 0 926.9 -0.3 98
2018-01-19 04:00:00 -2.1 0 Calma 13 Nordeste 0 926.7 -0.9 97
2018-01-19 03:00:00 -1.3 2 Noroeste 4 Noroeste 0 927 -0.5 97
2018-01-19 02:00:00 -1 0 Calma 5 Norte 0 927.2 -0.2 97
2018-01-19 01:00:00 0.1 2 Este 9 Nordeste 0 927.6 0.6 97
2018-01-19 00:00:00 0.5 3 Nordeste 11 Nordeste 0 927.5 0.8 97
2018-01-18 23:00:00 -0.2 3 Nordeste 6 Este 0 927.4 0.5 95
2018-01-18 22:00:00 0.6 2 Nordeste 5 Noroeste 0 927 0.3 94
2018-01-18 21:00:00 1.8 3 Norte 10 Noroeste 0 926.7 0.1 94
2018-01-18 20:00:00 3.1 0 Calma 4 Norte 0 926.9 0.1 86
2018-01-18 19:00:00 5.3 0 Calma 4 Sur 0 926.7 -0.2 79
2018-01-18 18:00:00 8.1 2 Noroeste 13 Sudoeste 0 926.6 -0.8 74
2018-01-18 17:00:00 11 8 Sudoeste 14 Sudoeste 0 926.8 -1.5 62
2018-01-18 16:00:00 11.6 7 Sudoeste 22 Sudoeste 0 926.9 -2.3 59
2018-01-18 15:00:00 10.9 6 Oeste 16 Sudoeste 0 927.4 -2.7 58
2018-01-18 14:00:00 9.2 4 Sudoeste 13 Oeste 0 928.3 -1.8 69
2018-01-18 13:00:00 6.2 4 Sudoeste 9 Sur 0 929.2 -0.7 74
2018-01-18 12:00:00 2.8 4 Sudeste 19 Este 0 930.1 0.7 85
2018-01-18 11:00:00 1.3 4 Nordeste 18 Nordeste 0 930.1 1.1 91
2018-01-18 10:00:00 -0.7 4 Nordeste 8 Nordeste 0 929.9 0.8 97
2018-01-18 09:00:00 -3.1 2 Nordeste 10 Este 0 929.4 0.2 98
2018-01-18 08:00:00 -2.8 0 Calma 5 Sudeste 0 929 -0.6 98
2018-01-18 07:00:00 -2.6 2 Noroeste 6 Sudoeste 0 929.1 -0.9 98
2018-01-18 06:00:00 -2.9 3 Sudoeste 8 Sudeste 0 929.2 -1.4 97
2018-01-18 05:00:00 -2.5 3 Sudoeste 5 Sudoeste 0 929.6 -1.6 97
2018-01-18 04:00:00 -2 3 Norte 5 Noroeste 0 930 -1.7 98
2018-01-18 03:00:00 -1.6 2 Noroeste 6 Oeste 0 930.6 -1.1 97
2018-01-18 02:00:00 -1.3 3 Noroeste 5 Noroeste 0 931.2 -0.5 97
2018-01-18 01:00:00 -1.2 0 Calma 5 Noroeste 0 931.7 -0.1 96
2018-01-18 00:00:00 -0.6 2 Norte 12 Este 0 931.7 -0.1 96
2018-01-17 23:00:00 0.4 5 Nordeste 9 Nordeste 0 931.7 0 96
2018-01-17 22:00:00 -0.4 2 Nordeste 4 Noroeste 0 931.8 0.4 93
2018-01-17 21:00:00 0.8 0 Calma 2 Noroeste 0 931.8 0.6 90
2018-01-17 20:00:00 2.3 0 Calma 4 Noroeste 0 931.7 0.4 85
2018-01-17 19:00:00 4.6 0 Calma 2 Nordeste 0 931.4 0.2 80
2018-01-17 18:00:00 7.4 0 Calma 11 Sudeste 0 931.2 -0.1 70
2018-01-17 17:00:00 9.4 6 Sudeste 14 Este 0 931.3 -0.5 61
2018-01-17 16:00:00 9.9 5 Este 13 Sudeste 0 931.2 -1.3 61
2018-01-17 15:00:00 8.9 5 Nordeste 13 Este 0 931.3 -1.5 65
2018-01-17 14:00:00 8.4 5 Este 16 Nordeste 0 931.8 -0.8 76
2018-01-17 13:00:00 7.4 8 Nordeste 15 Nordeste 0 932.5 0.7 77
2018-01-17 12:00:00 6.1 4 Este 11 Sudeste 0 932.8 1.6 82
2018-01-17 11:00:00 4.1 3 Este 12 Este 0 932.6 1.7 88
2018-01-17 10:00:00 2.7 6 Noroeste 14 Noroeste 0 931.8 1.5 98
2018-01-17 09:00:00 0.5 5 Noroeste 14 Noroeste 0 931.2 1.3 98
2018-01-17 08:00:00 -0.6 3 Norte 6 Norte 0 930.9 1.3 98
2018-01-17 07:00:00 -0.8 4 Noroeste 8 Norte 0 930.3 0.6 98
2018-01-17 06:00:00 0.1 0 Calma 10 Sudoeste 0 929.9 0.3 98
2018-01-17 05:00:00 1 0 Calma 9 Sudoeste 0 929.6 0.3 98
2018-01-17 04:00:00 1.3 3 Sudoeste 8 Sudoeste 0 929.7 0.1 98
2018-01-17 03:00:00 1.3 0 Calma 6 Oeste 0 929.6 -0.4 98
2018-01-17 02:00:00 1.8 2 Norte 5 Oeste 0 929.3 -0.7 97
2018-01-17 01:00:00 2.5 2 Oeste 5 Sudoeste 0 929.6 0 97
2018-01-17 00:00:00 3.6 2 Noroeste 12 Sudoeste 0 930 0.5 97
2018-01-16 23:00:00 3.2 2 Sudoeste 8 Sudoeste 0 930 0.4 96
2018-01-16 22:00:00 4.7 4 Sudoeste 14 Oeste 0 929.6 0.8 95
2018-01-16 21:00:00 6 6 Sudoeste 22 Sudoeste 0 929.5 0.7 94
2018-01-16 20:00:00 7.1 7 Sudoeste 33 Sudoeste 0 929.6 0.6 94
2018-01-16 19:00:00 8.2 15 Sudoeste 36 Sudoeste 0 928.8 -0.3 93
2018-01-16 18:00:00 10 18 Sudoeste 38 Sudoeste 0 928.8 -0.6 86
2018-01-16 17:00:00 11.6 16 Sudoeste 32 Sudoeste 0 929 -1 82
2018-01-16 16:00:00 12.7 15 Sudoeste 28 Sudoeste 0 929.1 -1.8 81
2018-01-16 15:00:00 11.3 12 Sudoeste 25 Sudoeste 0 929.4 -2.2 85
2018-01-16 14:00:00 10.3 5 Oeste 22 Oeste 0 930 -1.7 95
2018-01-16 13:00:00 7.1 8 Sudoeste 21 Sudoeste 0 930.9 -0.4 97
2018-01-16 12:00:00 5.4 10 Sudoeste 23 Sudoeste 0 931.6 0.9 97
2018-01-16 11:00:00 4 13 Sudoeste 22 Sudoeste 0 931.7 1.4 97
2018-01-16 10:00:00 3.4 10 Sudoeste 23 Sudoeste 0 931.3 1.6 97
2018-01-16 09:00:00 3 10 Sudoeste 19 Sudoeste 0 930.7 1.3 97
2018-01-16 08:00:00 3 6 Sudoeste 16 Sudoeste 0 930.3 0.8 97
2018-01-16 07:00:00 3.3 7 Sudoeste 19 Oeste 0 929.7 -0.1 96
2018-01-16 06:00:00 3.8 7 Sudoeste 18 Oeste 0 929.4 -0.4 96
2018-01-16 05:00:00 3.7 7 Sudoeste 16 Sudoeste 0 929.5 -0.5 95
2018-01-16 04:00:00 3.5 9 Sudoeste 19 Sudoeste 0 929.8 -0.6 95
2018-01-16 03:00:00 3.2 8 Sudoeste 17 Sudoeste 0 929.8 -0.5 95
2018-01-16 02:00:00 2.7 5 Sudoeste 13 Sudoeste 0 930 -0.4 95
2018-01-16 01:00:00 2.2 5 Sudoeste 17 Sudoeste 0 930.4 0.3 95
2018-01-16 00:00:00 2.5 8 Sudoeste 20 Sudoeste 0 930.3 0.3 95
2018-01-15 23:00:00 2 8 Sudoeste 15 Sur 0 930.4 0.6 97
2018-01-15 22:00:00 1.3 6 Sudoeste 10 Sudoeste 0 930.1 0.7 97
2018-01-15 21:00:00 0.8 4 Sudoeste 8 Sudoeste 0 930 0.9 97
2018-01-15 20:00:00 1.4 0 Calma 10 Oeste 0 929.8 0.8 96
2018-01-15 19:00:00 2.1 2 Oeste 9 Oeste 0 929.4 0.2 96
2018-01-15 18:00:00 2.6 4 Oeste 20 Sudoeste 0 929.1 0.1 95
2018-01-15 17:00:00 2.6 5 Oeste 19 Sudoeste 0 929 -0.6 96
2018-01-15 16:00:00 2.5 4 Oeste 21 Sudoeste 0 929.2 -1.5 98
2018-01-15 15:00:00 1.6 10 Sudoeste 22 Sudoeste 0 929 -1.9 98
2018-01-15 14:00:00 1 8 Sudoeste 23 Sudoeste 0 929.6 -1.3 98
2018-01-15 13:00:00 0 6 Sudoeste 17 Sudoeste 0 930.7 0.3 99
2018-01-15 12:00:00 -1 10 Sudoeste 18 Sudoeste 0 930.9 1.2 99
2018-01-15 11:00:00 -1.8 6 Sudoeste 17 Sudoeste 0 930.9 1.5 98
2018-01-15 10:00:00 -2.5 4 Sudoeste 13 Sudoeste 0 930.4 1.8 98
2018-01-15 09:00:00 -2.8 5 Sudoeste 13 Sudoeste 0 929.7 1.1 98
2018-01-15 08:00:00 -2.7 3 Sudoeste 9 Sudoeste 0 929.4 1.1 98
2018-01-15 07:00:00 -2.5 4 Sudoeste 13 Este 0 928.6 0.1 98
2018-01-15 06:00:00 -2.8 0 Calma 13 Oeste 0 928.6 0.4 98
2018-01-15 05:00:00 -2.4 2 Sudoeste 8 Noroeste 0 928.3 0.1 99
2018-01-15 04:00:00 -2 3 Norte 8 Este 0 928.5 0.4 99
2018-01-15 03:00:00 -1.7 4 Sudeste 8 Noroeste 0 928.2 0.2 98
2018-01-15 02:00:00 -1.6 3 Noroeste 9 Norte 0 928.2 0.8 98
2018-01-15 01:00:00 -1.2 3 Oeste 7 Noroeste 0 928.1 1.3 98
2018-01-15 00:00:00 -0.8 2 Sur 8 Sudoeste 0 928 1.4 98
2018-01-14 23:00:00 -0.7 0 Calma 5 Sudeste 0 927.4 1.4 98
2018-01-14 22:00:00 -0.9 2 Oeste 6 Sudoeste 0 926.8 1.4 97
2018-01-14 21:00:00 -1 0 Calma 9 Norte 0 926.6 1.9 97
2018-01-14 20:00:00 -0.8 3 Sudoeste 15 Oeste 0 926 2.1 97
2018-01-14 19:00:00 -0.8 3 Norte 7 Sudeste 0 925.4 2 97
2018-01-14 18:00:00 -0.9 2 Sudoeste 8 Nordeste 0 924.7 1.3 96
2018-01-14 17:00:00 -1.1 2 Norte 11 Este 0 923.9 0.7 96
2018-01-14 16:00:00 -1.1 3 Este 14 Nordeste 0 923.4 -0.1 97
2018-01-14 15:00:00 -1.5 7 Nordeste 12 Nordeste 0 923.4 -0.4 97
2018-01-14 14:00:00 -1.2 3 Nordeste 11 Nordeste 0 923.2 -0.2 98
2018-01-14 13:00:00 -1.4 5 Norte 18 Norte 0 923.5 0.9 97
2018-01-14 12:00:00 -1.5 5 Nordeste 14 Nordeste 0 923.8 1.8 98
2018-01-14 11:00:00 -1.2 3 Oeste 11 Sudoeste 0 923.4 1.7 98
2018-01-14 10:00:00 -1.1 5 Sudoeste 11 Sudoeste 0 922.6 1 98
2018-01-14 09:00:00 -1.1 3 Sudoeste 8 Oeste 0 922 0.7 98
2018-01-14 08:00:00 -1.4 2 Oeste 7 Noroeste 0 921.7 0.4 98
2018-01-14 07:00:00 -1.1 3 Noroeste 9 Noroeste 0 921.6 0.4 99
2018-01-14 06:00:00 -1 3 Oeste 10 Noroeste 0 921.3 0.3 99
2018-01-14 05:00:00 -1.2 5 Noroeste 14 Noroeste 0 921.3 0.1 98
2018-01-14 04:00:00 -0.6 2 Oeste 13 Sudoeste 0 921.2 -0.2 98
2018-01-14 03:00:00 -0.3 4 Oeste 14 Sudoeste 0 921 -0.5 98
2018-01-14 02:00:00 0 3 Oeste 9 Sudoeste 0 921.2 -0.1 98
2018-01-14 01:00:00 0.2 3 Oeste 10 Sudoeste 0 921.4 0.4 98
2018-01-14 00:00:00 0.1 5 Sudoeste 10 Sudoeste 0 921.5 0.7 98
2018-01-13 23:00:00 0.2 3 Sudoeste 11 Sudoeste 0 921.3 0.8 98
2018-01-13 22:00:00 0.1 3 Oeste 10 Sudoeste 0 921 1 98
2018-01-13 21:00:00 0.1 3 Oeste 8 Sudoeste 0.2 920.8 1.2 98
2018-01-13 20:00:00 0.1 4 Oeste 14 Sudoeste 0.2 920.5 1.1 97
2018-01-13 19:00:00 0.4 0 Calma 10 Oeste 0.2 920 1 97
2018-01-13 18:00:00 0.9 0 Calma 10 Oeste 0.8 919.6 0.6 97
2018-01-13 17:00:00 1.2 4 Sudoeste 9 Sudoeste 1 919.4 -0.1 98
2018-01-13 16:00:00 0.8 0 Calma 12 Sur 1 919 -1.4 98
2018-01-13 15:00:00 0.8 4 Sudoeste 15 Sudeste 0.6 919 -2.2 98
2018-01-13 14:00:00 0.7 6 Sudeste 14 Sudeste 0.4 919.5 -2.1 98
2018-01-13 13:00:00 0.7 5 Sudeste 10 Sudeste 0.4 920.4 -0.3 98
2018-01-13 12:00:00 0.8 4 Este 6 Sudeste 0.6 921.2 0 99
2018-01-13 11:00:00 0.2 0 Calma 7 Nordeste 0 921.6 0.6 99
2018-01-13 10:00:00 0 3 Este 8 Este 0 920.7 -1 99
2018-01-13 09:00:00 -0.5 3 Este 8 Sudeste 0 921.2 -1.3 99
2018-01-13 08:00:00 -0.7 6 Este 12 Sudeste 0 921 -1.5 99
2018-01-13 07:00:00 -0.6 0 Calma 6 Sudoeste 0 921.7 -1.4 99
2018-01-13 06:00:00 -0.7 0 Calma 6 Sudoeste 0 922.5 -0.9 99
2018-01-13 05:00:00 -0.6 2 Nordeste 6 Sudeste 0 922.5 -1.7 99
2018-01-13 04:00:00 -0.5 2 Nordeste 7 Este 0 923.1 -1.9 98
2018-01-13 03:00:00 -0.3 2 Nordeste 14 Este 0 923.4 -2.4 98
2018-01-13 02:00:00 -0.1 0 Calma 4 Noroeste 0 924.2 -2 98
2018-01-13 01:00:00 0.1 2 Sudeste 5 Sudeste 0 925 -1.5 98
2018-01-13 00:00:00 0.2 2 Oeste 6 Sudoeste 0 925.8 -1.2 98
2018-01-12 23:00:00 0.4 2 Este 4 Sudeste 0 926.2 -1.1 98
2018-01-12 22:00:00 0.5 0 Calma 5 Noroeste 0 926.5 -1.1 98
2018-01-12 21:00:00 0.7 2 Sudoeste 4 Oeste 0 927 -0.5 98
2018-01-12 20:00:00 0.6 0 Calma 10 Sudoeste 0 927.3 -0.6 97
2018-01-12 19:00:00 0.5 5 Sudoeste 14 Sudoeste 0 927.6 -0.1 97
2018-01-12 18:00:00 0.8 6 Sudoeste 14 Sudoeste 0 927.5 -0.5 97
2018-01-12 17:00:00 1.2 6 Sudoeste 14 Sudoeste 0 927.9 -0.6 97
2018-01-12 16:00:00 0.6 4 Sudoeste 13 Sudoeste 0 927.7 -1.9 98
2018-01-12 15:00:00 -0.1 2 Sur 7 Sudoeste 0 928 -2.6 98
2018-01-12 14:00:00 -0.6 3 Sudeste 8 Sudoeste 0 928.5 -2.2 98
2018-01-12 13:00:00 -0.9 4 Sur 8 Sudeste 0 929.6 -1 98
2018-01-12 12:00:00 -1 4 Sudoeste 8 Sur 0 930.6 0.4 98
2018-01-12 11:00:00 -1.7 3 Sudeste 9 Sur 0 930.7 0.7 98
2018-01-12 10:00:00 -1.8 5 Sur 12 Sudoeste 0 930.6 0.8 98
2018-01-12 09:00:00 -2 3 Sur 13 Este 0 930.2 1.1 98
2018-01-12 08:00:00 -2.4 5 Este 12 Este 0 930 0.7 98
2018-01-12 07:00:00 -2.6 5 Este 12 Nordeste 0 929.8 0.5 97
2018-01-12 06:00:00 -3 3 Este 7 Nordeste 0 929.1 -0.6 97
2018-01-12 05:00:00 -2.8 4 Norte 7 Nordeste 0 929.3 -0.1 97
2018-01-12 04:00:00 -2.3 3 Norte 6 Este 0 929.3 0 97
2018-01-12 03:00:00 -1.9 3 Sur 6 Sur 0 929.7 0.6 96
2018-01-12 02:00:00 -1.6 3 Sur 8 Sudoeste 0 929.4 0.9 95
2018-01-12 01:00:00 -0.4 5 Noroeste 10 Noroeste 0 929.3 1.2 96
2018-01-12 00:00:00 -0.7 0 Calma 6 Sudoeste 0 929.1 1.1 94
2018-01-11 23:00:00 -0.4 0 Calma 12 Sudoeste 0 928.5 1.5 92
2018-01-11 22:00:00 0 3 Oeste 16 Sudoeste 0 928.1 1.6 88
2018-01-11 21:00:00 1.1 3 Sudoeste 14 Sudoeste 0 928 2.1 85
2018-01-11 20:00:00 1.9 3 Oeste 17 Sudoeste 0 927 1.6 83
2018-01-11 19:00:00 2.8 4 Sudoeste 21 Oeste 0 926.5 1.4 79
2018-01-11 18:00:00 4.6 3 Oeste 22 Oeste 0 925.9 1 70
2018-01-11 17:00:00 7.4 4 Oeste 20 Sudoeste 0 925.4 0.5 61
2018-01-11 16:00:00 8.2 4 Oeste 16 Sudoeste 0 925.1 -0.3 52
2018-01-11 15:00:00 7.9 5 Oeste 25 Noroeste 0 924.9 -1 54
2018-01-11 14:00:00 7.5 6 Oeste 17 Noroeste 0 924.9 -0.4 58
2018-01-11 13:00:00 6.7 5 Oeste 18 Oeste 0 925.4 0.8 66
2018-01-11 12:00:00 5.4 3 Oeste 16 Sudoeste 0 925.9 1.6 70
2018-01-11 11:00:00 3.4 3 Oeste 12 Sudoeste 0 925.3 1.9 80
2018-01-11 10:00:00 1.1 6 Sudoeste 12 Oeste 0 924.6 2 95
2018-01-11 09:00:00 -1.4 3 Oeste 8 Sudoeste 0 924.3 2.5 95
2018-01-11 08:00:00 -0.8 3 Sudoeste 18 Oeste 0 923.4 1.5 94
2018-01-11 07:00:00 0 4 Oeste 17 Oeste 0 922.6 0.4 93
2018-01-11 06:00:00 0 3 Oeste 24 Oeste 0 921.8 -0.1 95
2018-01-11 05:00:00 0.2 5 Oeste 24 Sudoeste 0 921.9 -0.2 95
2018-01-11 04:00:00 0.5 6 Sudoeste 31 Sudoeste 0 922.2 -0.7 95
2018-01-11 03:00:00 0.6 8 Oeste 33 Oeste 0 921.9 -1.1 96
2018-01-11 02:00:00 0.7 9 Oeste 28 Oeste 0 922.1 -0.8 96
2018-01-11 01:00:00 0.5 10 Sudoeste 24 Sudoeste 0 922.9 0.8 95
2018-01-11 00:00:00 -0.1 6 Oeste 22 Oeste 0 923 1.1 94
2018-01-10 23:00:00 0.2 6 Oeste 26 Sudoeste 0 922.9 1.2 88
2018-01-10 22:00:00 0.4 6 Oeste 27 Sudoeste 0 922.1 1.7 87
2018-01-10 21:00:00 0.8 5 Oeste 25 Oeste 0 921.9 2.2 86
2018-01-10 20:00:00 1.4 3 Oeste 19 Sudoeste 0 921.7 2.9 84
2018-01-10 19:00:00 2.5 4 Oeste 31 Sudoeste 0 920.4 2.5 82
2018-01-10 18:00:00 4.1 4 Oeste 21 Sudoeste 0.4 919.7 2.1 79
2018-01-10 17:00:00 6.8 4 Sudoeste 32 Sudoeste 0 918.8 0.7 81
2018-01-10 16:00:00 6.1 9 Sudoeste 42 Sudoeste 0 917.9 -2 87
2018-01-10 15:00:00 5.9 22 Sudoeste 51 Sudoeste 1.2 917.6 -2.6 93
2018-01-10 14:00:00 5.6 19 Sudoeste 36 Sudoeste 1.4 918.1 -2.7 95
2018-01-10 13:00:00 5 16 Sudoeste 40 Sur 0.2 919.9 -0.8 95
2018-01-10 12:00:00 5.1 19 Sudoeste 41 Sudoeste 0 920.2 -0.3 97
2018-01-10 11:00:00 3.6 8 Sudoeste 22 Sudoeste 0 920.8 0.5 98
2018-01-10 10:00:00 3.2 6 Sudoeste 16 Oeste 0 920.7 0.5 98
2018-01-10 09:00:00 2.7 4 Oeste 14 Oeste 0 920.5 0.2 98
2018-01-10 08:00:00 2.6 2 Oeste 14 Sudoeste 0 920.3 0.3 98
2018-01-10 07:00:00 2.9 3 Oeste 11 Sudoeste 0.2 920.2 0.5 98
2018-01-10 06:00:00 2.9 3 Oeste 10 Sudoeste 0 920.3 0.3 98
2018-01-10 05:00:00 2.8 4 Oeste 14 Sudoeste 0 920 -0.1 98
2018-01-10 04:00:00 2 2 Norte 6 Noroeste 0 919.7 -0.1 98
2018-01-10 03:00:00 2 2 Nordeste 5 Norte 0 920 0 98
2018-01-10 02:00:00 2.2 2 Noroeste 10 Sudoeste 0.2 920.1 0.2 98
2018-01-10 01:00:00 2.3 3 Sudeste 7 Sudeste 0 919.8 0 98
2018-01-10 00:00:00 2.3 3 Sudoeste 10 Sudoeste 0 920 0.6 98
2018-01-09 23:00:00 2.2 6 Sudoeste 13 Sudoeste 0 919.9 0.8 97
2018-01-09 22:00:00 2.1 7 Sudoeste 16 Sudoeste 0 919.8 1.1 97
2018-01-09 21:00:00 1.6 7 Sudoeste 13 Sudoeste 0 919.4 1 97
2018-01-09 20:00:00 1.4 8 Sudoeste 17 Sudoeste 0 919.1 0.9 97
2018-01-09 19:00:00 1.3 7 Sur 22 Sudoeste 0.2 918.7 0.8 97
2018-01-09 18:00:00 0.9 8 Sudoeste 23 Sudoeste 0.4 918.4 0.3 97
2018-01-09 17:00:00 0.9 13 Sudoeste 26 Sudoeste 0.4 918.2 -0.4 96
2018-01-09 16:00:00 0.9 11 Sudoeste 20 Sudoeste 0.6 917.9 -1.2 96
2018-01-09 15:00:00 0.7 9 Sudoeste 18 Sudoeste 0.6 918.1 -1.6 95
2018-01-09 14:00:00 0.4 9 Sudoeste 17 Sudoeste 0.4 918.6 -0.9 95
2018-01-09 13:00:00 0 9 Sudoeste 22 Sudoeste 0 919.1 0.1 92
2018-01-09 12:00:00 0 10 Sudoeste 17 Sudoeste 0 919.7 0.9 87
2018-01-09 11:00:00 -1.1 6 Sudoeste 12 Sudoeste 0 919.5 1.1 94
2018-01-09 10:00:00 -2.7 3 Sur 12 Sudoeste 0 919 0 94
2018-01-09 09:00:00 -3.2 4 Sur 8 Sudeste 0 918.8 -0.1 95
2018-01-09 08:00:00 -3.6 0 Calma 6 Sudoeste 0 918.4 -0.3 96
2018-01-09 07:00:00 -4.1 3 Sudoeste 6 Sudoeste 0 919 0.5 96
2018-01-09 06:00:00 -4.1 0 Calma 4 Este 0 918.9 0.3 96
2018-01-09 05:00:00 -3.9 0 Calma 4 Sudeste 0 918.7 -0.3 95
2018-01-09 04:00:00 -3.4 0 Calma 8 Sudoeste 0 918.5 -0.3 95
2018-01-09 03:00:00 -3.3 4 Sudoeste 8 Sudoeste 0 918.6 -0.4 95
2018-01-09 02:00:00 -3 4 Sudoeste 9 Sudoeste 0 919 -0.1 95
2018-01-09 01:00:00 -2.5 3 Sudoeste 6 Sudoeste 0 918.8 0.1 96
2018-01-09 00:00:00 -2.6 2 Sur 5 Sudoeste 0 919 0.2 95
2018-01-08 23:00:00 -2.2 2 Oeste 8 Sudoeste 0 919.1 0.6 95
2018-01-08 22:00:00 -1.8 3 Oeste 8 Sudoeste 0 918.7 0.6 94
2018-01-08 21:00:00 -1.4 3 Sudoeste 12 Sudoeste 0 918.8 0.9 89
2018-01-08 20:00:00 -0.7 4 Sudoeste 8 Sudoeste 0 918.5 1.5 85
2018-01-08 19:00:00 1.1 5 Sudoeste 17 Oeste 0 918.1 1.7 81
2018-01-08 18:00:00 3.6 7 Sudoeste 16 Sudoeste 0 917.9 1.5 73
2018-01-08 17:00:00 6.1 10 Sudoeste 18 Sur 0 917 0.5 58
2018-01-08 16:00:00 7.3 11 Sudoeste 19 Sudoeste 0 916.4 -0.6 53
2018-01-08 15:00:00 7.6 8 Sudoeste 19 Sudoeste 0 916.4 -0.9 52
2018-01-08 14:00:00 7.1 6 Sudoeste 18 Sudoeste 0 916.5 -0.6 50
2018-01-08 13:00:00 5.4 4 Noroeste 13 Noroeste 0 917 0.4 63
2018-01-08 12:00:00 3 3 Noroeste 11 Noroeste 0 917.3 1 75
2018-01-08 11:00:00 0.7 3 Noroeste 5 Noroeste 0 917.1 1.3 85
2018-01-08 10:00:00 -0.3 0 Calma 7 Noroeste 0 916.6 1.5 96
2018-01-08 09:00:00 -2.9 0 Calma 4 Noroeste 0 916.3 1.5 96
2018-01-08 08:00:00 -2.4 2 Norte 8 Nordeste 0 915.8 1.4 96
2018-01-08 07:00:00 -2.2 2 Nordeste 6 Norte 0 915.1 1.2 95
2018-01-08 06:00:00 -1.9 0 Calma 5 Sur 0 914.8 1.5 93
2018-01-08 05:00:00 -1.6 3 Sudeste 8 Sur 0 914.4 1.4 93
2018-01-08 04:00:00 -1.3 4 Noroeste 12 Oeste 0 913.9 0.7 88
2018-01-08 03:00:00 -1.1 4 Noroeste 11 Norte 0 913.3 0.3 88
2018-01-08 02:00:00 -0.5 6 Nordeste 14 Nordeste 0 913 0.1 87
2018-01-08 01:00:00 0 5 Este 15 Norte 0 913.2 0.9 86
2018-01-08 00:00:00 0.5 7 Nordeste 17 Nordeste 0 913 1.3 86
2018-01-07 23:00:00 0.8 9 Nordeste 22 Nordeste 0 912.9 1.9 87
2018-01-07 22:00:00 0.7 9 Nordeste 22 Nordeste 0 912.3 1.7 92
2018-01-07 21:00:00 0.8 8 Nordeste 20 Nordeste 0 911.7 2.5 91
2018-01-07 20:00:00 1.7 8 Nordeste 23 Nordeste 0 911 3 87
2018-01-07 19:00:00 2.7 10 Nordeste 28 Este 0 910.6 3.7 85
2018-01-07 18:00:00 3.7 12 Este 39 Este 0 909.2 3.3 82
2018-01-07 17:00:00 4.5 13 Este 38 Este 0 908 2.3 85
2018-01-07 16:00:00 5.8 15 Este 39 Este 0 906.9 1.3 79
2018-01-07 15:00:00 6 12 Nordeste 31 Nordeste 0 905.9 0.1 73
2018-01-07 14:00:00 5.2 5 Sudeste 9 Sudeste 0 905.7 0.1 72
2018-01-07 13:00:00 4.6 3 Oeste 8 Oeste 0 905.6 0.2 74
2018-01-07 12:00:00 4.4 4 Noroeste 11 Norte 0 905.8 0.7 72
2018-01-07 11:00:00 4.4 8 Norte 30 Nordeste 0 905.6 0.8 72
2018-01-07 10:00:00 3.8 9 Nordeste 25 Norte 0 905.4 0.3 72
2018-01-07 09:00:00 3.3 12 Norte 37 Norte 0 905.1 -0.1 71
2018-01-07 08:00:00 1.7 5 Norte 14 Norte 0 904.8 -0.8 83
2018-01-07 07:00:00 1.9 2 Noroeste 11 Nordeste 0 905.1 -1.1 83
2018-01-07 06:00:00 1.9 5 Noroeste 15 Norte 0 905.2 -1 83
2018-01-07 05:00:00 2 6 Noroeste 24 Norte 0 905.6 -0.4 84
2018-01-07 04:00:00 2.8 13 Norte 30 Norte 0 906.2 0.2 75
2018-01-07 03:00:00 2.6 8 Norte 23 Norte 0 906.2 -0.2 73
2018-01-07 02:00:00 2.8 11 Norte 24 Nordeste 0 906 -1.1 72
2018-01-07 01:00:00 2.5 9 Noroeste 31 Norte 0 906 -1.4 74
2018-01-07 00:00:00 2.1 12 Norte 26 Norte 0 906.4 -1.2 76
2018-01-06 23:00:00 1.8 12 Norte 30 Nordeste 0 907.1 -0.7 77
2018-01-06 22:00:00 2.3 13 Norte 30 Nordeste 0 907.4 -0.3 74
2018-01-06 21:00:00 2.3 11 Norte 25 Norte 0 907.6 0.2 77
2018-01-06 20:00:00 1.8 9 Nordeste 21 Nordeste 0 907.8 0.5 84
2018-01-06 19:00:00 2.4 5 Norte 12 Noroeste 0 907.7 0.4 82
2018-01-06 18:00:00 2.2 6 Noroeste 15 Norte 0 907.4 0.2 86
2018-01-06 17:00:00 2 8 Noroeste 18 Noroeste 0 907.3 -0.2 92
2018-01-06 16:00:00 1.8 8 Noroeste 20 Norte 0 907.3 -0.7 94
2018-01-06 15:00:00 2 11 Norte 25 Norte 0 907.2 -1.4 87
2018-01-06 14:00:00 2 8 Noroeste 18 Norte 0 907.5 -1.1 91
2018-01-06 13:00:00 2.1 10 Norte 24 Norte 0 908 -0.2 87
2018-01-06 12:00:00 2 10 Norte 22 Nordeste 0 908.6 0.5 81
2018-01-06 11:00:00 1.5 12 Nordeste 29 Nordeste 0 908.6 0.6 83
2018-01-06 10:00:00 1.7 10 Nordeste 27 Nordeste 0 908.2 0.6 81
2018-01-06 09:00:00 1.6 9 Nordeste 22 Nordeste 0 908.1 0.9 82
2018-01-06 08:00:00 1.6 4 Nordeste 12 Nordeste 0 908 -0.3 93
2018-01-06 07:00:00 1.5 6 Nordeste 22 Nordeste 0 907.6 -0.8 94
2018-01-06 06:00:00 1.9 9 Nordeste 30 Este 0 907.2 -1.5 90
2018-01-06 05:00:00 2.1 8 Este 22 Este 0 908.3 -0.6 90
2018-01-06 04:00:00 2.4 9 Este 26 Nordeste 0 908.4 -1.1 89
2018-01-06 03:00:00 2.8 9 Este 25 Nordeste 0 908.7 -1.5 89
2018-01-06 02:00:00 3.4 3 Sur 6 Sur 0 908.9 -1.1 92
2018-01-06 01:00:00 3.7 3 Sur 6 Sudoeste 0 909.5 -0.8 90
2018-01-06 00:00:00 4 2 Oeste 10 Sudoeste 0 910.2 -0.5 88
2018-01-05 23:00:00 4.3 2 Sudeste 7 Sudoeste 0 910 -1.1 85
2018-01-05 22:00:00 4.6 2 Oeste 6 Sudoeste 0 910.3 -1 87
2018-01-05 21:00:00 5 0 Calma 9 Sudoeste 0 910.7 -1 88
2018-01-05 20:00:00 5.6 0 Calma 10 Sudoeste 0 911.1 -1 90
2018-01-05 19:00:00 5.8 3 Sudoeste 5 Sudoeste 0 911.3 -1.1 90
2018-01-05 18:00:00 6.6 3 Sudoeste 22 Oeste 0.6 911.7 -1.2 89
2018-01-05 17:00:00 7.6 6 Sudoeste 21 Sudoeste 0 912.1 -1.2 82
2018-01-05 16:00:00 8.2 7 Sudoeste 23 Sudoeste 0 912.4 -1.4 81
2018-01-05 15:00:00 8.4 10 Sudoeste 26 Sudoeste 0 912.9 -1 81
2018-01-05 14:00:00 8.3 8 Sudoeste 23 Sudoeste 0 913.3 -1.6 82
2018-01-05 13:00:00 8.1 6 Sudoeste 21 Sudoeste 0 913.8 -1 86
2018-01-05 12:00:00 7.3 9 Sudoeste 18 Sudoeste 0 913.9 -1.1 91
2018-01-05 11:00:00 7.1 9 Oeste 37 Sudoeste 1.6 914.9 -0.9 95
2018-01-05 10:00:00 7.1 18 Sudoeste 39 Sudoeste 0 914.8 -1.7 93
2018-01-05 09:00:00 7.5 19 Sudoeste 46 Sudoeste 0 915 -2.4 87
2018-01-05 08:00:00 7.6 15 Sudoeste 45 Sudoeste 0 915.8 -2.7 82
2018-01-05 07:00:00 7.6 23 Sudoeste 45 Sudoeste 0 916.5 -3.2 83
2018-01-05 06:00:00 7.6 22 Sudoeste 50 Sudoeste 0 917.4 -3.1 84
2018-01-05 05:00:00 7.6 20 Sudoeste 38 Sudoeste 0 918.5 -3.2 84
2018-01-05 04:00:00 7.7 16 Sudoeste 40 Sudoeste 0 919.7 -3 84
2018-01-05 03:00:00 7.8 18 Sudoeste 42 Sudoeste 0 920.5 -2.8 84
2018-01-05 02:00:00 7.9 19 Sudoeste 44 Sudoeste 0 921.7 -2.4 88
2018-01-05 01:00:00 7.9 18 Sudoeste 43 Sudoeste 0 922.7 -2.3 86
2018-01-05 00:00:00 7.9 15 Sudoeste 33 Sudoeste 0 923.3 -2.1 85
2018-01-04 23:00:00 8 12 Sudoeste 27 Sudoeste 0 924.1 -1.6 86
2018-01-04 22:00:00 8.9 10 Sudoeste 24 Sudoeste 0 925 -1 85
2018-01-04 21:00:00 9.4 12 Sudoeste 30 Sudoeste 0 925.4 -1 85
2018-01-04 20:00:00 9.7 9 Sudoeste 28 Sudoeste 0 925.7 -0.5 83
2018-01-04 19:00:00 10 10 Sudoeste 32 Sudoeste 0 926 -0.6 81
2018-01-04 18:00:00 10.4 13 Sudoeste 32 Sudoeste 0 926.4 -0.6 78
2018-01-04 17:00:00 11.2 15 Sudoeste 38 Sudoeste 0 926.2 -2.1 73
2018-01-04 16:00:00 12.6 12 Sudoeste 38 Sudoeste 0 926.6 -2.5 68
2018-01-04 15:00:00 11.8 16 Sudoeste 39 Sudoeste 0 927 -3.1 70
2018-01-04 14:00:00 11.5 14 Sudoeste 35 Sudoeste 0 928.3 -2 72
2018-01-04 13:00:00 11.2 12 Sudoeste 30 Sudoeste 0 929.1 -1.3 75
2018-01-04 12:00:00 11.2 10 Oeste 28 Sudoeste 0 930.1 -0.2 76
2018-01-04 11:00:00 10.2 10 Sudoeste 33 Sudoeste 0 930.3 -0.1 82
2018-01-04 10:00:00 9.3 11 Sudoeste 30 Sudoeste 0 930.4 -0.3 90
2018-01-04 09:00:00 9.2 10 Sudoeste 30 Sudoeste 0 930.3 -0.5 94
2018-01-04 08:00:00 9.4 8 Sudoeste 31 Sudoeste 0 930.4 -0.9 94
2018-01-04 07:00:00 9.7 13 Sudoeste 33 Sudoeste 0 930.7 -1.1 93
2018-01-04 06:00:00 9.8 8 Sudoeste 40 Sur 0 930.8 -1.2 94
2018-01-04 05:00:00 9.7 8 Oeste 28 Oeste 0 931.3 -1.3 95
2018-01-04 04:00:00 9.6 7 Oeste 30 Sudoeste 0 931.8 -0.8 94
2018-01-04 03:00:00 9.7 12 Sudoeste 27 Oeste 0 932 -1.1 94
2018-01-04 02:00:00 9.8 13 Sudoeste 30 Sudoeste 0 932.6 -0.4 95
2018-01-04 01:00:00 9.5 11 Sudoeste 30 Sudoeste 0 932.6 -0.9 95
2018-01-04 00:00:00 9.5 10 Sudoeste 32 Sudoeste 0 933.1 -0.5 95
2018-01-03 23:00:00 9.8 12 Sudoeste 30 Sudoeste 0 933 -0.4 94
2018-01-03 22:00:00 10.1 8 Sudoeste 22 Sudoeste 0 933.5 0.5 93
2018-01-03 21:00:00 10.7 10 Sudoeste 23 Sudoeste 0 933.6 0.4 88
2018-01-03 20:00:00 11.4 8 Sudoeste 33 Sudoeste 0 933.4 0.2 85
2018-01-03 19:00:00 12.2 13 Sudoeste 29 Sudoeste 0 933 -0.3 84
2018-01-03 18:00:00 13 11 Sudoeste 31 Sudoeste 0 933.2 -0.3 80
2018-01-03 17:00:00 14.3 11 Sudoeste 29 Sudoeste 0 933.2 -0.7 76
2018-01-03 16:00:00 15 12 Sudoeste 33 Sudoeste 0 933.3 -1.2 74
2018-01-03 15:00:00 16 8 Oeste 28 Noroeste 0 933.5 -1.7 69
2018-01-03 14:00:00 15.8 12 Sudoeste 34 Sudoeste 0 933.9 -1.6 75
2018-01-03 13:00:00 13.4 8 Oeste 30 Sudoeste 0 934.5 -0.5 81
2018-01-03 12:00:00 12.8 9 Oeste 26 Sudoeste 0 935.2 1.1 86
2018-01-03 11:00:00 11.1 7 Oeste 24 Sudoeste 0 935.5 1.6 94
2018-01-03 10:00:00 10.7 5 Oeste 23 Oeste 0 935 1.6 95
2018-01-03 09:00:00 10.4 9 Sudoeste 31 Sudoeste 0 934.1 0.9 95
2018-01-03 08:00:00 10.5 9 Oeste 34 Sudoeste 0 933.9 0.5 96
2018-01-03 07:00:00 10.5 14 Sudoeste 35 Sudoeste 0 933.4 -0.1 96
2018-01-03 06:00:00 10.5 17 Sudoeste 40 Sudoeste 0 933.2 -0.3 95
2018-01-03 05:00:00 10.5 15 Sudoeste 46 Sudoeste 0 933.4 0 95
2018-01-03 04:00:00 10.5 12 Sudoeste 33 Sudoeste 0 933.5 0 95
2018-01-03 03:00:00 10.4 11 Sudoeste 35 Oeste 0 933.5 0 95
2018-01-03 02:00:00 10.5 13 Sudoeste 35 Sudoeste 0 933.4 -0.3 95
2018-01-03 01:00:00 10.5 14 Sudoeste 32 Sudoeste 0 933.5 -0.5 95
2018-01-03 00:00:00 10.4 13 Sudoeste 27 Sudoeste 0 933.5 -0.6 95
2018-01-02 23:00:00 10.2 10 Sudoeste 26 Sudoeste 0 933.7 -0.2 95
2018-01-02 22:00:00 10.1 8 Sudoeste 30 Sudoeste 0 934 0.2 95
2018-01-02 21:00:00 9.7 9 Sudoeste 24 Sudoeste 0 934.1 0.5 95
2018-01-02 20:00:00 9.3 9 Sudoeste 24 Sudoeste 0 933.9 0.8 94
2018-01-02 19:00:00 10 11 Sudoeste 30 Sudoeste 0 933.8 0.7 90
2018-01-02 18:00:00 11.7 8 Sudoeste 31 Sudoeste 0 933.6 0.3 80
2018-01-02 17:00:00 12.8 7 Sudoeste 29 Sudoeste 0 933.1 -0.7 75
2018-01-02 16:00:00 12.9 7 Sudoeste 26 Sudoeste 0 933.1 -1.3 76
2018-01-02 15:00:00 13.6 5 Sudoeste 20 Sudoeste 0 933.3 -1.3 75
2018-01-02 14:00:00 11 7 Sudoeste 28 Sudoeste 0 933.8 -0.9 82
2018-01-02 13:00:00 9.9 6 Oeste 29 Sudoeste 0 934.4 0.1 84
2018-01-02 12:00:00 9.1 8 Sudoeste 30 Sudoeste 0 934.6 0.7 89
2018-01-02 11:00:00 7.2 6 Sudoeste 25 Sudoeste 0 934.7 1.2 95
2018-01-02 10:00:00 5.8 8 Sudoeste 23 Sudoeste 0 934.3 1 96
2018-01-02 09:00:00 5.1 4 Oeste 17 Oeste 0 933.9 0.8 96
2018-01-02 08:00:00 4.6 6 Oeste 17 Sudoeste 0 933.5 0.1 96
2018-01-02 07:00:00 4.4 8 Sudoeste 28 Sudoeste 0 933.3 -0.1 95
2018-01-02 06:00:00 4.9 14 Sudoeste 29 Sudoeste 0 933.1 -0.3 95
2018-01-02 05:00:00 4.7 12 Sudoeste 31 Sudoeste 0 933.4 0.3 94
2018-01-02 04:00:00 4.8 13 Sudoeste 28 Sudoeste 0 933.4 0.6 95
2018-01-02 03:00:00 4.8 10 Sudoeste 31 Sudoeste 0 933.4 0.6 94
2018-01-02 02:00:00 5.2 12 Sudoeste 29 Sudoeste 0 933.1 0.3 93
2018-01-02 01:00:00 5.6 9 Sudoeste 33 Sudoeste 0 932.8 0.2 92
2018-01-02 00:00:00 6.4 13 Sudoeste 37 Sudoeste 0 932.8 0.6 90
2018-01-01 23:00:00 6.6 10 Sudoeste 28 Oeste 0 932.8 1.3 89
2018-01-01 22:00:00 6.5 12 Sudoeste 33 Sudoeste 0 932.6 1.8 86
2018-01-01 21:00:00 6.9 9 Sudoeste 29 Oeste 0 932.2 1.8 84
2018-01-01 20:00:00 7.2 5 Oeste 31 Oeste 0 931.5 1.7 81
2018-01-01 19:00:00 7.9 6 Oeste 29 Sudoeste 0 930.8 1.5 78
2018-01-01 18:00:00 8.6 8 Oeste 24 Sudoeste 0 930.4 0.6 78
2018-01-01 17:00:00 9.6 5 Oeste 34 Oeste 0 929.8 -0.2 78
2018-01-01 16:00:00 10 10 Sudoeste 41 Oeste 0 929.3 -2.1 79
2018-01-01 15:00:00 8.9 12 Sudoeste 45 Sudoeste 0 929.8 -2.2 81
2018-01-01 14:00:00 7.1 18 Sudoeste 48 Sudoeste 0 930 -2.4 85
2018-01-01 13:00:00 6.3 16 Sudoeste 45 Sudoeste 0 931.4 -0.8 86
2018-01-01 12:00:00 5.4 22 Sudoeste 54 Sudoeste 0 932 -0.4 90
2018-01-01 11:00:00 4.6 18 Sudoeste 48 Sur 0 932.4 -0.3 93
2018-01-01 10:00:00 3.4 19 Sudoeste 41 Oeste 0 932.2 -0.3 96
2018-01-01 09:00:00 2.4 16 Sudoeste 35 Sudoeste 0 932.4 0.1 96
2018-01-01 08:00:00 1.6 10 Sudoeste 28 Sudoeste 0 932.7 0 96
2018-01-01 07:00:00 1.1 10 Sudoeste 31 Sudoeste 0 932.5 0.2 95
2018-01-01 06:00:00 1.2 13 Sudoeste 29 Sudoeste 0 932.3 -0.2 95
2018-01-01 05:00:00 0.7 6 Sudoeste 23 Sudoeste 0 932.7 0.7 94
2018-01-01 04:00:00 0.2 8 Sudoeste 17 Oeste 0 932.3 0.3 94
2018-01-01 03:00:00 0.3 3 Oeste 21 Oeste 0 932.5 0.5 90
2018-01-01 02:00:00 0.8 5 Oeste 27 Sudoeste 0 932 0.4 86
2018-01-01 01:00:00 1.1 8 Sudoeste 28 Sudoeste 0 932 1.1 85
2018-01-01 00:00:00 0.6 8 Oeste 23 Sudoeste 0 932 1.7 90
2017-12-31 23:00:00 0.6 6 Sudoeste 21 Sudoeste 0 931.6 2.6 91
2017-12-31 22:00:00 0.6 4 Sudoeste 14 Sudoeste 0 930.9 3.7 87
2017-12-31 21:00:00 1.2 3 Oeste 17 Oeste 0 930.3 4.2 84
2017-12-31 20:00:00 2.3 4 Oeste 16 Sudoeste 0 929 4.5 82
2017-12-31 19:00:00 3.7 4 Sudoeste 28 Oeste 0 927.2 4.2 82
2017-12-31 18:00:00 5 5 Oeste 31 Sudoeste 0 926.1 4.4 79
2017-12-31 17:00:00 6.1 5 Oeste 27 Sudoeste 0 924.5 2.1 83
2017-12-31 16:00:00 6.7 5 Oeste 50 Sudoeste 0.4 923 0 83
2017-12-31 15:00:00 8.5 23 Sudoeste 51 Sudoeste 0 921.7 -1.8 89
2017-12-31 14:00:00 9.2 23 Sudoeste 51 Sudoeste 0 922.4 -1.9 78
2017-12-31 13:00:00 10.3 31 Sudoeste 62 Sudoeste 0 923 -1.4 70
2017-12-31 12:00:00 9.4 24 Sudoeste 57 Sudoeste 0 923.5 -1.4 74
2017-12-31 11:00:00 8.4 19 Sudoeste 38 Sudoeste 0 924.3 -1.3 80
2017-12-31 10:00:00 8 19 Sudoeste 38 Sudoeste 0 924.4 -1.6 82
2017-12-31 09:00:00 7.7 14 Sudoeste 32 Sudoeste 0 924.9 -1.2 83
2017-12-31 08:00:00 8 18 Sudoeste 39 Sudoeste 0 925.6 -1 83
2017-12-31 07:00:00 7.6 10 Sudoeste 24 Sur 0 926 -1.3 83
2017-12-31 06:00:00 7.8 14 Sudoeste 27 Sudoeste 0 926.1 -2 83
2017-12-31 05:00:00 7.8 9 Sudoeste 23 Sudoeste 0 926.6 -2 80
2017-12-31 04:00:00 7.7 12 Sudoeste 22 Sudoeste 0 927.3 -2.2 81
2017-12-31 03:00:00 7.5 9 Sudoeste 22 Sudoeste 0 928.1 -1.6 82
2017-12-31 02:00:00 6.7 5 Sudoeste 13 Sudoeste 0 928.6 -1.2 85
2017-12-31 01:00:00 6.5 7 Sudoeste 18 Sudoeste 0 929.5 -0.7 89